createdAt,value
2022-08-01T00:01:21.431Z,100348.97
2022-08-01T00:06:23.033Z,100354.56
2022-08-01T00:11:24.616Z,100353.75
2022-08-01T00:16:26.477Z,100354.03
2022-08-01T00:21:28.051Z,100346.84
2022-08-01T00:26:29.618Z,100348.25
2022-08-01T00:31:31.188Z,100358.28
2022-08-01T00:36:32.777Z,100355.25
2022-08-01T00:41:34.384Z,100355.56
2022-08-01T00:46:35.969Z,100346.69
2022-08-01T00:51:39.935Z,100350.59
2022-08-01T00:56:41.859Z,100348.09
2022-08-01T01:01:46.733Z,100363.09
2022-08-01T01:07:15.829Z,100360.63
2022-08-01T01:18:23.353Z,100368.97
2022-08-01T01:23:31.011Z,100373.09
2022-08-01T01:28:42.571Z,100367.59
2022-08-01T01:33:47.071Z,100375.63
2022-08-01T01:38:52.052Z,100372.63
2022-08-01T01:43:54.949Z,100371.78
2022-08-01T01:48:58.447Z,100367.34
2022-08-01T01:54:02.062Z,100377.59
2022-08-01T01:59:04.994Z,100369.00
2022-08-01T02:04:07.854Z,100374.53
2022-08-01T02:09:10.519Z,100370.94
2022-08-01T02:14:15.192Z,100381.75
2022-08-01T02:19:20.796Z,100369.56
2022-08-01T02:24:50.473Z,100380.91
2022-08-01T02:30:15.073Z,100369.81
2022-08-01T02:35:28.937Z,100369.00
2022-08-01T02:40:33.890Z,100368.13
2022-08-01T02:45:38.327Z,100370.31
2022-08-01T02:50:43.821Z,100371.16
2022-08-01T02:55:48.368Z,100368.94
2022-08-01T03:00:50.171Z,100373.06
2022-08-01T03:05:52.428Z,100376.34
2022-08-01T03:10:56.265Z,100375.44
2022-08-01T03:15:58.883Z,100372.13
2022-08-01T03:21:03.905Z,100375.94
2022-08-01T03:26:07.051Z,100372.31
2022-08-01T03:31:09.576Z,100358.69
2022-08-01T03:36:13.376Z,100367.78
2022-08-01T03:41:22.029Z,100368.84
2022-08-01T03:46:33.203Z,100367.22
2022-08-01T03:51:35.464Z,100367.53
2022-08-01T03:56:38.341Z,100368.63
2022-08-01T04:01:40.380Z,100374.44
2022-08-01T04:06:44.874Z,100374.44
2022-08-01T04:11:46.471Z,100376.13
2022-08-01T04:16:48.102Z,100376.94
2022-08-01T04:21:50.841Z,100367.88
2022-08-01T04:26:53.663Z,100382.50
2022-08-01T04:31:57.787Z,100381.75
2022-08-01T04:37:01.479Z,100389.41
2022-08-01T04:42:05.714Z,100385.91
2022-08-01T04:47:08.861Z,100405.59
2022-08-01T04:52:15.171Z,100393.19
2022-08-01T04:57:19.108Z,100414.44
2022-08-01T05:02:20.688Z,100422.13
2022-08-01T05:07:22.642Z,100430.09
2022-08-01T05:12:26.764Z,100435.97
2022-08-01T05:17:28.483Z,100443.28
2022-08-01T05:22:30.247Z,100453.19
2022-08-01T05:27:32.437Z,100461.31
2022-08-01T05:32:35.533Z,100463.09
2022-08-01T05:37:37.121Z,100479.88
2022-08-01T05:42:38.714Z,100490.72
2022-08-01T05:47:43.167Z,100492.91
2022-08-01T05:52:44.875Z,100502.91
2022-08-01T05:57:46.451Z,100511.44
2022-08-01T06:02:48.012Z,100516.63
2022-08-01T06:07:49.699Z,100519.34
2022-08-01T06:12:51.561Z,100530.59
2022-08-01T06:17:53.256Z,100532.28
2022-08-01T06:22:57.537Z,100530.59
2022-08-01T06:28:01.987Z,100532.00
2022-08-01T06:33:03.993Z,100537.06
2022-08-01T06:38:05.727Z,100542.38
2022-08-01T06:43:07.352Z,100550.53
2022-08-01T06:48:09.324Z,100543.31
2022-08-01T06:53:11.405Z,100540.13
2022-08-01T06:58:13.000Z,100549.25
2022-08-01T07:03:14.573Z,100550.09
2022-08-01T07:08:16.339Z,100537.50
2022-08-01T07:13:21.596Z,100539.56
2022-08-01T07:18:23.542Z,100548.06
2022-08-01T07:23:30.468Z,100548.25
2022-08-01T07:28:35.732Z,100547.19
2022-08-01T07:33:47.704Z,100549.94
2022-08-01T07:38:50.914Z,100552.88
2022-08-01T07:43:57.247Z,100540.34
2022-08-01T07:49:01.285Z,100542.06
2022-08-01T07:54:08.900Z,100524.09
2022-08-01T07:59:14.912Z,100516.84
2022-08-01T08:04:28.437Z,100528.75
2022-08-01T08:09:38.041Z,100521.28
2022-08-01T08:14:39.849Z,100501.22
2022-08-01T08:19:41.474Z,100504.03
2022-08-01T08:24:46.094Z,100515.97
2022-08-01T08:29:48.474Z,100513.97
2022-08-01T08:34:50.016Z,100525.94
2022-08-01T08:39:51.559Z,100531.50
2022-08-01T08:44:57.870Z,100527.56
2022-08-01T08:50:01.306Z,100515.31
2022-08-01T08:55:03.264Z,100507.44
2022-08-01T09:00:06.427Z,100518.13
2022-08-01T09:05:08.975Z,100526.72
2022-08-01T09:10:10.640Z,100530.47
2022-08-01T09:15:12.665Z,100513.84
2022-08-01T09:20:23.974Z,100508.09
2022-08-01T09:25:29.900Z,100520.19
2022-08-01T09:30:47.253Z,100488.09
2022-08-01T09:35:57.245Z,100480.47
2022-08-01T09:41:01.544Z,100478.28
2022-08-01T09:46:21.682Z,100508.06
2022-08-01T09:52:00.294Z,100497.63
2022-08-01T09:57:13.821Z,100500.69
2022-08-01T10:02:31.484Z,100493.41
2022-08-01T10:07:43.862Z,100512.84
2022-08-01T10:12:47.667Z,100495.75
2022-08-01T10:17:58.916Z,100507.44
2022-08-01T10:23:05.922Z,100486.03
2022-08-01T10:28:18.183Z,100481.91
2022-08-01T10:33:50.734Z,100467.66
2022-08-01T10:38:46.784Z,100461.03
2022-08-01T10:43:48.365Z,100512.09
2022-08-01T10:49:14.035Z,100523.25
2022-08-01T10:54:15.873Z,100533.34
2022-08-01T10:59:50.852Z,100530.59
2022-08-01T11:04:58.610Z,100517.50
2022-08-01T11:10:14.734Z,100504.31
2022-08-01T11:15:18.256Z,100475.66
2022-08-01T11:20:41.903Z,100535.03
2022-08-01T11:26:03.353Z,100504.69
2022-08-01T11:31:11.773Z,100529.41
2022-08-01T11:36:18.525Z,100523.97
2022-08-01T11:41:38.530Z,100537.34
2022-08-01T11:47:00.653Z,100537.31
2022-08-01T11:52:04.825Z,100525.50
2022-08-01T11:57:10.339Z,100540.47
2022-08-01T12:02:30.714Z,100548.19
2022-08-01T12:07:34.339Z,100549.22
2022-08-01T12:12:37.676Z,100517.25
2022-08-01T12:17:45.847Z,100465.63
2022-08-01T12:23:11.984Z,100401.16
2022-08-01T12:28:14.803Z,100399.34
2022-08-01T12:33:19.951Z,100468.25
2022-08-01T12:38:23.974Z,100461.41
2022-08-01T12:43:27.352Z,100437.81
2022-08-01T12:48:32.213Z,100386.31
2022-08-01T12:53:40.147Z,100371.53
2022-08-01T12:58:42.880Z,100387.28
2022-08-01T13:04:02.149Z,100374.41
2022-08-01T13:09:07.910Z,100369.41
2022-08-01T13:14:09.861Z,100382.78
2022-08-01T13:19:11.440Z,100437.94
2022-08-01T13:24:14.341Z,100485.41
2022-08-01T13:29:18.331Z,100540.97
2022-08-01T13:34:30.805Z,100547.94
2022-08-01T13:39:41.737Z,100512.41
2022-08-01T13:44:46.353Z,100500.88
2022-08-01T13:49:48.026Z,100494.66
2022-08-01T13:54:49.631Z,100472.13
2022-08-01T13:59:53.329Z,100471.28
2022-08-01T14:04:56.591Z,100445.56
2022-08-01T14:10:18.726Z,100437.97
2022-08-01T14:15:38.712Z,100402.63
2022-08-01T14:20:41.161Z,100445.44
2022-08-01T14:26:03.095Z,100516.88
2022-08-01T14:31:06.695Z,100515.50
2022-08-01T14:36:31.026Z,100484.06
2022-08-01T14:41:30.817Z,100390.22
2022-08-01T14:46:34.078Z,100354.56
2022-08-01T14:51:37.994Z,100362.59
2022-08-01T14:56:39.557Z,100379.25
2022-08-01T15:01:41.206Z,100347.97
2022-08-01T15:06:42.828Z,100328.56
2022-08-01T15:11:44.404Z,100338.53
2022-08-01T15:16:45.989Z,100342.09
2022-08-01T15:21:47.573Z,100366.78
2022-08-01T15:26:49.156Z,100343.44
2022-08-01T15:31:51.891Z,100298.19
2022-08-01T15:36:53.451Z,100286.66
2022-08-01T15:41:55.087Z,100277.16
2022-08-01T15:46:56.703Z,100276.22
2022-08-01T15:51:58.292Z,100293.38
2022-08-01T15:57:00.035Z,100283.91
2022-08-01T16:02:01.693Z,100286.00
2022-08-01T16:07:03.345Z,100279.06
2022-08-01T16:12:05.253Z,100275.25
2022-08-01T16:17:07.074Z,100283.56
2022-08-01T16:22:09.161Z,100292.75
2022-08-01T16:27:11.196Z,100316.06
2022-08-01T16:32:28.329Z,100330.63
2022-08-01T16:37:34.340Z,100353.59
2022-08-01T16:42:35.933Z,100337.34
2022-08-01T16:47:38.077Z,100334.28
2022-08-01T16:52:41.935Z,100328.75
2022-08-01T16:57:43.924Z,100313.75
2022-08-01T17:02:46.167Z,100313.63
2022-08-01T17:07:47.821Z,100322.66
2022-08-01T17:12:49.392Z,100335.50
2022-08-01T17:17:53.295Z,100351.13
2022-08-01T17:22:55.099Z,100361.00
2022-08-01T17:27:56.864Z,100352.75
2022-08-01T17:32:58.432Z,100331.72
2022-08-01T17:38:00.117Z,100327.66
2022-08-01T17:43:01.684Z,100325.91
2022-08-01T17:48:06.624Z,100328.47
2022-08-01T17:53:08.199Z,100322.75
2022-08-01T17:58:12.807Z,100323.16
2022-08-01T18:03:22.800Z,100338.03
2022-08-01T18:08:31.758Z,100339.53
2022-08-01T18:13:33.434Z,100330.66
2022-08-01T18:18:39.089Z,100329.84
2022-08-01T18:23:44.119Z,100333.94
2022-08-01T18:28:52.693Z,100342.69
2022-08-01T18:33:54.349Z,100343.50
2022-08-01T18:38:55.928Z,100348.94
2022-08-01T18:44:04.288Z,100358.34
2022-08-01T18:49:11.681Z,100365.91
2022-08-01T18:54:14.866Z,100367.03
2022-08-01T18:59:16.546Z,100373.28
2022-08-01T19:04:18.522Z,100381.75
2022-08-01T19:09:21.074Z,100379.38
2022-08-01T19:14:22.741Z,100381.47
2022-08-01T19:19:27.815Z,100383.88
2022-08-01T19:24:29.791Z,100392.13
2022-08-01T19:29:35.295Z,100382.47
2022-08-01T19:34:47.537Z,100389.44
2022-08-01T19:39:49.282Z,100396.56
2022-08-01T19:44:54.531Z,100400.88
2022-08-01T19:49:56.164Z,100395.91
2022-08-01T19:54:58.146Z,100396.03
2022-08-01T20:00:01.822Z,100403.00
2022-08-01T20:05:06.701Z,100412.22
2022-08-01T20:10:08.925Z,100414.69
2022-08-01T20:15:11.526Z,100419.94
2022-08-01T20:20:13.231Z,100438.84
2022-08-01T20:25:17.529Z,100432.63
2022-08-01T20:30:19.267Z,100431.53
2022-08-01T20:35:38.946Z,100435.56
2022-08-01T20:40:43.424Z,100432.44
2022-08-01T20:45:45.485Z,100442.63
2022-08-01T20:51:07.249Z,100441.16
2022-08-01T20:56:16.444Z,100436.88
2022-08-01T21:01:28.340Z,100447.38
2022-08-01T21:06:36.729Z,100451.41
2022-08-01T21:12:03.547Z,100450.25
2022-08-01T21:17:19.507Z,100451.06
2022-08-01T21:22:29.749Z,100442.97
2022-08-01T21:27:34.219Z,100445.94
2022-08-01T21:32:36.892Z,100457.53
2022-08-01T21:37:40.129Z,100457.97
2022-08-01T21:42:46.615Z,100470.84
2022-08-01T21:47:49.986Z,100467.53
2022-08-01T21:53:07.235Z,100471.19
2022-08-01T21:58:23.894Z,100465.38
2022-08-01T22:03:33.897Z,100477.97
2022-08-01T22:08:39.972Z,100480.00
2022-08-01T22:13:43.670Z,100474.22
2022-08-01T22:18:46.100Z,100473.25
2022-08-01T22:23:47.825Z,100477.50
2022-08-01T22:28:52.673Z,100478.19
2022-08-01T22:33:54.964Z,100476.63
2022-08-01T22:38:56.728Z,100477.78
2022-08-01T22:44:09.128Z,100479.19
2022-08-01T22:49:25.921Z,100491.19
2022-08-01T22:54:37.581Z,100474.50
2022-08-01T22:59:48.900Z,100479.78
2022-08-01T23:04:59.494Z,100489.28
2022-08-01T23:10:05.831Z,100481.78
2022-08-01T23:15:08.651Z,100476.53
2022-08-01T23:20:11.116Z,100477.94
2022-08-01T23:25:15.037Z,100489.34
2022-08-01T23:30:16.783Z,100478.50
2022-08-01T23:35:18.434Z,100487.13
2022-08-01T23:40:20.253Z,100486.25
2022-08-01T23:45:22.448Z,100474.03
2022-08-01T23:50:24.362Z,100466.81
2022-08-01T23:55:36.895Z,100469.59
